createdAt,value
2022-08-16T00:33:50.010Z,23.20
2022-08-16T01:05:09.643Z,21.00
2022-08-16T01:39:29.840Z,23.15
2022-08-16T01:45:40.938Z,24.60
2022-08-16T01:48:20.438Z,26.60
2022-08-16T01:51:17.079Z,26.17
2022-08-16T03:20:32.416Z,27.45
2022-08-16T03:23:17.882Z,29.97
2022-08-16T03:25:48.395Z,27.98
2022-08-16T03:28:18.448Z,27.73
2022-08-16T03:30:56.391Z,30.58
2022-08-16T03:33:23.238Z,29.67
2022-08-16T03:35:56.959Z,30.93
2022-08-16T03:38:33.121Z,23.95
2022-08-16T03:41:25.478Z,29.27
2022-08-16T03:43:56.490Z,26.48
2022-08-16T03:46:47.571Z,27.17
2022-08-16T03:49:18.139Z,30.57
2022-08-16T03:51:52.043Z,28.55
2022-08-16T03:54:35.611Z,30.17
2022-08-16T03:57:05.161Z,31.85
2022-08-16T04:02:22.515Z,31.40
2022-08-16T04:05:20.833Z,29.90
2022-08-16T04:08:23.071Z,35.95
2022-08-16T04:11:08.448Z,32.88
2022-08-16T04:14:00.922Z,34.40
2022-08-16T04:16:32.237Z,35.33
2022-08-16T04:19:15.843Z,32.97
2022-08-16T04:21:56.721Z,30.67
2022-08-16T04:27:19.897Z,36.05
2022-08-16T04:29:52.686Z,37.30
2022-08-16T04:32:25.326Z,39.13
2022-08-16T04:35:08.419Z,36.78
2022-08-16T04:37:41.909Z,32.55
2022-08-16T04:40:10.463Z,39.70
2022-08-16T04:45:40.940Z,37.13
2022-08-16T04:48:09.372Z,35.83
2022-08-16T04:50:38.684Z,39.75
2022-08-16T07:29:17.645Z,41.55
2022-08-16T07:31:44.440Z,45.00
2022-08-16T07:34:14.344Z,41.22
2022-08-16T07:36:41.081Z,40.20
2022-08-16T07:39:13.270Z,39.73
2022-08-16T07:41:59.684Z,43.33
2022-08-16T07:44:50.700Z,40.65
2022-08-16T07:47:38.347Z,40.40
2022-08-16T07:50:55.544Z,44.67
2022-08-16T07:53:09.422Z,41.50
2022-08-16T08:54:18.780Z,39.58
2022-08-16T08:59:41.154Z,35.22
2022-08-16T09:02:08.480Z,40.73
2022-08-16T09:04:41.034Z,34.80
2022-08-16T09:07:08.076Z,38.90
2022-08-16T09:15:13.638Z,37.87
2022-08-16T09:17:51.851Z,35.22
2022-08-16T09:20:20.483Z,35.50
2022-08-16T12:22:05.802Z,23.13
2022-08-16T12:24:59.616Z,17.80
2022-08-16T12:35:29.084Z,19.95
2022-08-16T13:15:32.547Z,25.15
2022-08-16T14:43:29.695Z,27.05
2022-08-16T14:46:47.453Z,24.25
2022-08-16T14:49:16.387Z,20.45
2022-08-16T14:54:30.645Z,20.77
2022-08-16T14:56:59.983Z,21.45
2022-08-16T15:02:40.351Z,23.83
2022-08-16T15:05:13.101Z,18.13
2022-08-16T15:07:53.191Z,23.77
2022-08-16T15:10:39.111Z,22.70
2022-08-16T15:13:23.312Z,24.02
2022-08-16T15:16:02.712Z,24.63
2022-08-16T15:18:31.754Z,24.43
2022-08-16T15:23:43.122Z,25.08
2022-08-16T15:26:11.197Z,25.25
2022-08-16T15:29:20.817Z,25.55
2022-08-16T15:32:00.885Z,22.00
2022-08-16T15:54:29.598Z,30.90
2022-08-16T16:04:11.525Z,28.45
2022-08-16T18:44:47.736Z,22.53
2022-08-16T18:47:14.446Z,17.60
2022-08-16T18:49:41.173Z,20.13
2022-08-16T18:52:07.877Z,16.15
2022-08-16T18:55:01.883Z,20.88
2022-08-16T18:57:21.485Z,16.43
2022-08-16T18:59:48.243Z,20.15
2022-08-16T19:02:57.679Z,15.57
2022-08-16T19:05:27.482Z,21.23
2022-08-16T19:07:54.111Z,20.42
2022-08-16T19:10:22.609Z,18.03
2022-08-16T19:12:49.439Z,19.75
2022-08-16T19:15:27.800Z,20.25
2022-08-16T19:17:54.863Z,21.63
2022-08-16T19:20:23.981Z,25.08
2022-08-16T19:23:05.233Z,18.93
2022-08-16T22:03:03.926Z,26.80
2022-08-16T22:08:51.780Z,35.28
2022-08-16T22:11:25.310Z,29.60
2022-08-16T22:13:58.545Z,26.60
2022-08-16T22:16:49.498Z,33.80
